Time;durP1;ratioP1;P1;durP2;ratioP2;P2;SDS_P1;SDS_P2;PMS_P1;PMS_P2;Temp;Humidity;BMP_temperature;BMP_pressure;BME280_temperature;BME280_humidity;BME280_pressure;Samples;Min_cycle;Max_cycle;Signal;HPM_P1;HPM_P2
2024/01/13 00:01:12;;;;;;;5.05;3.17;;;;;;;;;;5067993;28;20412;-85
2024/01/13 00:03:37;;;;;;;6.15;3.63;;;;;;;;;;5050128;28;20159;-86
2024/01/13 00:06:03;;;;;;;6.32;4.07;;;;;;;;;;5066371;28;20021;-86
2024/01/13 00:08:28;;;;;;;5.55;3.67;;;;;;;;;;5067127;28;20028;-84
2024/01/13 00:10:53;;;;;;;4.78;3.85;;;;;;;;;;5051559;28;20059;-85
2024/01/13 00:13:19;;;;;;;4.25;3.63;;;;;;;;;;5046119;28;20021;-85
2024/01/13 00:15:44;;;;;;;4.07;2.42;;;;;;;;;;5065239;28;20032;-85
2024/01/13 00:18:09;;;;;;;5.95;3.83;;;;;;;;;;5047745;28;20033;-85
2024/01/13 00:20:35;;;;;;;3.55;2.72;;;;;;;;;;5065524;28;20098;-84
2024/01/13 00:23:00;;;;;;;8.43;5.10;;;;;;;;;;5045346;28;20052;-85
2024/01/13 00:25:25;;;;;;;8.93;3.85;;;;;;;;;;5065736;28;20098;-84
2024/01/13 00:27:51;;;;;;;3.65;2.50;;;;;;;;;;5045496;28;20095;-85
2024/01/13 00:30:16;;;;;;;6.10;4.35;;;;;;;;;;5039562;28;20390;-85
2024/01/13 00:32:41;;;;;;;8.88;4.82;;;;;;;;;;5061950;28;21456;-85
2024/01/13 00:35:07;;;;;;;8.65;4.63;;;;;;;;;;5064527;28;20031;-85
2024/01/13 00:37:32;;;;;;;7.38;4.75;;;;;;;;;;5061471;28;20438;-86
2024/01/13 00:39:57;;;;;;;12.27;5.30;;;;;;;;;;5042495;28;20040;-86
2024/01/13 00:42:23;;;;;;;8.20;4.55;;;;;;;;;;5036025;28;20037;-85
2024/01/13 00:44:48;;;;;;;10.60;5.90;;;;;;;;;;5040242;28;20426;-85
2024/01/13 00:47:13;;;;;;;9.88;5.47;;;;;;;;;;5058188;28;20094;-86
2024/01/13 00:49:39;;;;;;;8.18;5.30;;;;;;;;;;5056117;28;20040;-84
2024/01/13 00:52:05;;;;;;;9.55;4.55;;;;;;;;;;5059595;28;20044;-85
2024/01/13 00:54:30;;;;;;;14.73;5.72;;;;;;;;;;5073839;28;20020;-85
2024/01/13 00:56:55;;;;;;;10.20;5.30;;;;;;;;;;5060828;28;20769;-86
2024/01/13 00:59:21;;;;;;;8.32;4.32;;;;;;;;;;5038692;28;20281;-84
2024/01/13 01:01:46;;;;;;;5.68;4.75;;;;;;;;;;5054998;28;20087;-84
2024/01/13 01:04:11;;;;;;;10.32;5.65;;;;;;;;;;5036018;28;20028;-85
2024/01/13 01:06:37;;;;;;;9.52;4.82;;;;;;;;;;5058403;28;20120;-86
2024/01/13 01:09:02;;;;;;;6.72;4.07;;;;;;;;;;5057352;28;20313;-87
2024/01/13 01:11:27;;;;;;;9.32;5.88;;;;;;;;;;5057690;28;20521;-85
2024/01/13 01:13:53;;;;;;;7.65;5.82;;;;;;;;;;5064177;28;20013;-86
2024/01/13 01:16:18;;;;;;;4.63;3.78;;;;;;;;;;5042239;28;20017;-86
2024/01/13 01:18:44;;;;;;;9.07;4.75;;;;;;;;;;5076277;28;20131;-85
2024/01/13 01:21:09;;;;;;;8.95;6.65;;;;;;;;;;5062133;28;20035;-85
2024/01/13 01:23:35;;;;;;;14.90;5.20;;;;;;;;;;5067017;28;20463;-86
2024/01/13 01:26:00;;;;;;;12.73;4.50;;;;;;;;;;5077603;28;20021;-86
2024/01/13 01:28:25;;;;;;;4.68;4.28;;;;;;;;;;5049344;28;20032;-85
2024/01/13 01:30:51;;;;;;;8.93;4.63;;;;;;;;;;5063816;28;20021;-85
2024/01/13 01:33:16;;;;;;;9.65;3.72;;;;;;;;;;5064127;28;20028;-84
2024/01/13 01:35:41;;;;;;;6.53;4.50;;;;;;;;;;5057922;28;20034;-85
2024/01/13 01:38:07;;;;;;;10.05;4.90;;;;;;;;;;5067507;28;20413;-86
2024/01/13 01:40:34;;;;;;;6.60;3.35;;;;;;;;;;5046043;28;20032;-84
2024/01/13 01:43:00;;;;;;;8.05;5.38;;;;;;;;;;5052163;28;20084;-85
2024/01/13 01:45:25;;;;;;;5.85;3.80;;;;;;;;;;5039061;28;20083;-85
2024/01/13 01:47:52;;;;;;;5.18;3.78;;;;;;;;;;5058823;28;20029;-84
2024/01/13 01:50:17;;;;;;;4.30;3.30;;;;;;;;;;5064732;28;20076;-83
2024/01/13 01:52:43;;;;;;;4.30;2.55;;;;;;;;;;5078389;28;20052;-85
2024/01/13 01:55:09;;;;;;;8.15;5.07;;;;;;;;;;5051889;28;20043;-85
2024/01/13 01:57:38;;;;;;;5.47;2.90;;;;;;;;;;5039419;28;20025;-86
2024/01/13 02:00:05;;;;;;;9.95;5.15;;;;;;;;;;5045010;28;20024;-86
2024/01/13 02:02:31;;;;;;;13.43;5.53;;;;;;;;;;5064914;28;20112;-85
2024/01/13 02:04:58;;;;;;;9.10;4.63;;;;;;;;;;5053049;28;20039;-85
2024/01/13 02:07:24;;;;;;;12.70;4.80;;;;;;;;;;5068675;28;20039;-84
2024/01/13 02:09:50;;;;;;;11.05;5.10;;;;;;;;;;5067176;28;20107;-86
2024/01/13 02:12:16;;;;;;;9.02;5.10;;;;;;;;;;5062832;28;20021;-84
2024/01/13 02:14:41;;;;;;;7.82;4.72;;;;;;;;;;5067486;28;20074;-84
2024/01/13 02:17:07;;;;;;;6.68;3.65;;;;;;;;;;5056279;28;20024;-85
2024/01/13 02:19:32;;;;;;;10.27;5.93;;;;;;;;;;5046041;28;20032;-87
2024/01/13 02:21:58;;;;;;;6.55;3.90;;;;;;;;;;5054030;28;20299;-86
2024/01/13 02:24:23;;;;;;;7.80;3.88;;;;;;;;;;5070932;28;20024;-84
2024/01/13 02:26:49;;;;;;;7.65;4.45;;;;;;;;;;5077103;28;20015;-86
2024/01/13 02:29:14;;;;;;;5.47;3.05;;;;;;;;;;5065162;28;20021;-86
2024/01/13 02:31:39;;;;;;;9.95;4.15;;;;;;;;;;5073823;28;20085;-86
2024/01/13 02:34:05;;;;;;;7.03;4.38;;;;;;;;;;5075044;28;20047;-86
2024/01/13 02:36:30;;;;;;;6.82;4.32;;;;;;;;;;5071572;28;20029;-86
2024/01/13 02:38:56;;;;;;;9.10;4.60;;;;;;;;;;5055034;28;20027;-87
2024/01/13 02:41:21;;;;;;;8.18;4.57;;;;;;;;;;5052787;28;20048;-85
2024/01/13 02:43:47;;;;;;;6.63;3.85;;;;;;;;;;5049961;28;20719;-85
2024/01/13 02:46:12;;;;;;;6.47;4.25;;;;;;;;;;5071865;28;20565;-85
2024/01/13 02:48:46;;;;;;;7.13;3.33;;;;;;;;;;5070072;28;20032;-85
2024/01/13 02:51:14;;;;;;;4.15;3.75;;;;;;;;;;5053879;28;20035;-87
2024/01/13 02:53:40;;;;;;;9.60;4.53;;;;;;;;;;5070599;28;20044;-87
2024/01/13 02:56:05;;;;;;;12.27;5.75;;;;;;;;;;5071509;28;20032;-87
2024/01/13 02:58:30;;;;;;;7.65;4.68;;;;;;;;;;5068323;28;20033;-85
2024/01/13 03:00:56;;;;;;;7.53;3.92;;;;;;;;;;5065391;28;20032;-86
2024/01/13 03:03:21;;;;;;;5.97;4.78;;;;;;;;;;5071248;28;20557;-86
2024/01/13 03:05:46;;;;;;;9.50;4.13;;;;;;;;;;5063786;28;20575;-86
2024/01/13 03:08:12;;;;;;;9.43;4.55;;;;;;;;;;5063984;28;20486;-85
2024/01/13 03:10:37;;;;;;;12.55;3.90;;;;;;;;;;5065711;28;20060;-87
2024/01/13 03:13:02;;;;;;;7.90;3.42;;;;;;;;;;5049121;28;20149;-85
2024/01/13 03:15:28;;;;;;;6.03;2.95;;;;;;;;;;5049633;28;20056;-86
2024/01/13 03:17:53;;;;;;;11.43;4.80;;;;;;;;;;5063772;28;20041;-85
2024/01/13 03:20:18;;;;;;;4.82;3.25;;;;;;;;;;5047941;28;20051;-85
2024/01/13 03:22:45;;;;;;;11.77;4.55;;;;;;;;;;5066596;28;20028;-86
2024/01/13 03:25:11;;;;;;;8.05;4.82;;;;;;;;;;5048465;28;20079;-85
2024/01/13 03:27:36;;;;;;;12.98;4.63;;;;;;;;;;5066092;28;20028;-86
2024/01/13 03:30:02;;;;;;;7.80;2.65;;;;;;;;;;5045092;28;20041;-86
2024/01/13 03:32:27;;;;;;;3.85;2.95;;;;;;;;;;5041152;28;20128;-87
2024/01/13 03:34:52;;;;;;;5.13;3.10;;;;;;;;;;5068259;28;20394;-85
2024/01/13 03:37:17;;;;;;;6.13;2.53;;;;;;;;;;5064401;28;20025;-86
2024/01/13 03:39:43;;;;;;;8.57;4.18;;;;;;;;;;5061339;28;20158;-85
2024/01/13 03:42:09;;;;;;;2.70;2.53;;;;;;;;;;5070377;28;20771;-86
2024/01/13 03:44:34;;;;;;;2.67;1.98;;;;;;;;;;5069624;28;20035;-85
2024/01/13 03:46:59;;;;;;;3.80;3.03;;;;;;;;;;5070021;28;20103;-86
2024/01/13 03:49:25;;;;;;;2.35;2.15;;;;;;;;;;5062168;28;20119;-86
2024/01/13 03:51:50;;;;;;;5.80;3.67;;;;;;;;;;5063285;28;20478;-86
2024/01/13 03:54:15;;;;;;;4.22;3.65;;;;;;;;;;5044991;28;20031;-86
2024/01/13 03:56:40;;;;;;;8.88;3.05;;;;;;;;;;5060978;28;20060;-86
2024/01/13 03:59:06;;;;;;;5.85;2.92;;;;;;;;;;5063554;28;20383;-86
2024/01/13 04:01:32;;;;;;;4.20;3.35;;;;;;;;;;5055108;28;20039;-86
2024/01/13 04:03:57;;;;;;;3.95;2.90;;;;;;;;;;5060349;28;20086;-86
2024/01/13 04:06:23;;;;;;;5.00;3.75;;;;;;;;;;5060520;28;20112;-85
2024/01/13 04:08:48;;;;;;;4.63;3.67;;;;;;;;;;5059398;28;20021;-86
2024/01/13 04:11:13;;;;;;;13.18;4.28;;;;;;;;;;5062110;28;20036;-86
2024/01/13 04:13:39;;;;;;;4.88;3.25;;;;;;;;;;5060161;28;20056;-87
2024/01/13 04:16:04;;;;;;;7.82;4.15;;;;;;;;;;5067157;28;20024;-86
2024/01/13 04:18:30;;;;;;;4.47;3.33;;;;;;;;;;5060057;28;20111;-86
2024/01/13 04:20:55;;;;;;;3.13;2.83;;;;;;;;;;5064286;28;20029;-87
2024/01/13 04:23:20;;;;;;;9.60;4.55;;;;;;;;;;5057325;28;20533;-87
2024/01/13 04:25:46;;;;;;;7.63;3.58;;;;;;;;;;5055814;28;20025;-86
2024/01/13 04:28:11;;;;;;;6.38;3.83;;;;;;;;;;5063815;28;20036;-87
2024/01/13 04:30:36;;;;;;;4.57;2.78;;;;;;;;;;5050930;28;20031;-87
2024/01/13 04:33:02;;;;;;;4.22;2.97;;;;;;;;;;5058079;28;20036;-87
2024/01/13 04:35:28;;;;;;;3.72;2.78;;;;;;;;;;5049169;28;20029;-87
2024/01/13 04:37:57;;;;;;;8.13;4.13;;;;;;;;;;5043825;28;20034;-85
2024/01/13 04:40:22;;;;;;;6.30;3.15;;;;;;;;;;5079589;28;20074;-85
2024/01/13 04:42:47;;;;;;;3.83;2.13;;;;;;;;;;5084433;28;20065;-84
2024/01/13 04:45:13;;;;;;;6.60;3.85;;;;;;;;;;5087831;28;20604;-84
2024/01/13 04:47:39;;;;;;;7.07;3.30;;;;;;;;;;5069843;28;20040;-85
2024/01/13 04:50:05;;;;;;;6.25;2.95;;;;;;;;;;5053684;28;20078;-85
2024/01/13 04:52:30;;;;;;;11.38;6.65;;;;;;;;;;5067781;28;20056;-86
2024/01/13 04:54:55;;;;;;;15.18;5.05;;;;;;;;;;5070318;28;20036;-85
2024/01/13 04:57:21;;;;;;;8.88;3.45;;;;;;;;;;5041932;28;20033;-85
2024/01/13 04:59:47;;;;;;;6.15;3.97;;;;;;;;;;5065070;28;20021;-87
2024/01/13 05:02:12;;;;;;;5.88;3.30;;;;;;;;;;5064859;28;20037;-86
2024/01/13 05:04:39;;;;;;;3.63;3.33;;;;;;;;;;5070845;28;20033;-83
2024/01/13 05:07:04;;;;;;;8.63;4.13;;;;;;;;;;5059833;28;20028;-84
2024/01/13 05:09:30;;;;;;;9.27;3.92;;;;;;;;;;5050259;28;20020;-87
2024/01/13 05:11:55;;;;;;;8.20;4.32;;;;;;;;;;5063363;28;20029;-86
2024/01/13 05:14:20;;;;;;;10.10;4.30;;;;;;;;;;5067513;28;20044;-82
2024/01/13 05:16:46;;;;;;;3.78;2.90;;;;;;;;;;5065280;28;20059;-85
2024/01/13 05:19:11;;;;;;;11.15;3.58;;;;;;;;;;5050166;28;20021;-86
2024/01/13 05:21:37;;;;;;;5.95;3.13;;;;;;;;;;5065263;28;20547;-84
2024/01/13 05:24:02;;;;;;;12.75;3.85;;;;;;;;;;5076191;28;20044;-82
2024/01/13 05:26:27;;;;;;;7.63;2.75;;;;;;;;;;5055404;28;20047;-87
2024/01/13 05:28:53;;;;;;;5.25;2.70;;;;;;;;;;5046440;28;20116;-85
2024/01/13 05:31:18;;;;;;;10.05;4.07;;;;;;;;;;5060789;28;20116;-85
2024/01/13 05:33:43;;;;;;;4.88;3.72;;;;;;;;;;5062824;28;20044;-86
2024/01/13 05:36:08;;;;;;;7.47;2.67;;;;;;;;;;5060728;28;20119;-87
2024/01/13 05:38:34;;;;;;;5.32;3.75;;;;;;;;;;5051945;28;20037;-86
2024/01/13 05:40:59;;;;;;;5.97;4.10;;;;;;;;;;5047980;28;20052;-87
2024/01/13 05:43:25;;;;;;;7.50;4.32;;;;;;;;;;5065125;28;20068;-86
2024/01/13 05:45:50;;;;;;;14.40;5.10;;;;;;;;;;5065388;28;20071;-85
2024/01/13 05:48:15;;;;;;;5.90;3.65;;;;;;;;;;5046407;28;20044;-87
2024/01/13 05:50:41;;;;;;;6.78;3.47;;;;;;;;;;5043345;28;21470;-85
2024/01/13 05:53:06;;;;;;;6.43;3.88;;;;;;;;;;5046128;28;20024;-87
2024/01/13 05:55:31;;;;;;;15.52;6.63;;;;;;;;;;5065525;28;20029;-85
2024/01/13 05:57:57;;;;;;;12.80;7.93;;;;;;;;;;5065403;28;20036;-84
2024/01/13 06:00:22;;;;;;;9.52;4.68;;;;;;;;;;5044952;28;20039;-86
2024/01/13 06:02:47;;;;;;;14.32;8.45;;;;;;;;;;5068503;28;20382;-87
2024/01/13 06:05:13;;;;;;;22.42;9.15;;;;;;;;;;5062057;28;20065;-86
2024/01/13 06:07:38;;;;;;;25.67;9.90;;;;;;;;;;5064843;28;20390;-86
2024/01/13 06:10:04;;;;;;;28.55;14.48;;;;;;;;;;5049712;28;20028;-86
2024/01/13 06:12:30;;;;;;;30.00;12.30;;;;;;;;;;5053084;28;20035;-85
2024/01/13 06:14:55;;;;;;;13.52;6.35;;;;;;;;;;5064555;28;20493;-88
2024/01/13 06:17:21;;;;;;;15.52;5.28;;;;;;;;;;5068717;28;20029;-86
2024/01/13 06:19:47;;;;;;;7.45;5.22;;;;;;;;;;5064682;28;20157;-86
2024/01/13 06:22:13;;;;;;;6.85;4.38;;;;;;;;;;5059723;28;20056;-86
2024/01/13 06:24:38;;;;;;;2.88;2.63;;;;;;;;;;5041807;28;20109;-85
2024/01/13 06:27:04;;;;;;;12.77;5.20;;;;;;;;;;5067400;28;20111;-85
2024/01/13 06:29:29;;;;;;;10.98;4.72;;;;;;;;;;5049042;28;20058;-85
2024/01/13 06:31:54;;;;;;;6.25;4.63;;;;;;;;;;5066033;28;20566;-86
2024/01/13 06:34:19;;;;;;;5.15;3.85;;;;;;;;;;5053873;28;20020;-85
2024/01/13 06:36:45;;;;;;;8.65;3.22;;;;;;;;;;5046533;28;20055;-87
2024/01/13 06:39:11;;;;;;;8.77;6.32;;;;;;;;;;5043541;28;20115;-86
2024/01/13 06:41:37;;;;;;;16.48;5.95;;;;;;;;;;5064855;28;20024;-86
2024/01/13 06:44:02;;;;;;;6.88;4.18;;;;;;;;;;5064737;28;20098;-84
2024/01/13 06:46:27;;;;;;;10.77;5.70;;;;;;;;;;5067323;28;20085;-86
2024/01/13 06:48:53;;;;;;;10.20;5.30;;;;;;;;;;5047124;28;20044;-87
2024/01/13 06:51:18;;;;;;;14.90;5.30;;;;;;;;;;5049882;28;20080;-85
2024/01/13 06:53:43;;;;;;;17.55;7.05;;;;;;;;;;5068825;28;20033;-87
2024/01/13 06:56:09;;;;;;;7.45;4.38;;;;;;;;;;5064268;28;20483;-86
2024/01/13 06:58:34;;;;;;;12.65;4.82;;;;;;;;;;5068520;28;20391;-86
2024/01/13 07:00:59;;;;;;;11.90;4.55;;;;;;;;;;5051774;28;20048;-87
2024/01/13 07:03:25;;;;;;;7.28;3.75;;;;;;;;;;5068175;28;20051;-85
2024/01/13 07:05:50;;;;;;;13.30;5.05;;;;;;;;;;5051049;28;20012;-85
2024/01/13 07:08:15;;;;;;;12.43;5.13;;;;;;;;;;5061483;28;20052;-87
2024/01/13 07:10:41;;;;;;;8.18;3.83;;;;;;;;;;5070281;28;20033;-86
2024/01/13 07:13:06;;;;;;;5.28;3.72;;;;;;;;;;5050028;28;20021;-87
2024/01/13 07:15:31;;;;;;;8.25;3.92;;;;;;;;;;5050356;28;20124;-86
2024/01/13 07:17:59;;;;;;;5.38;3.72;;;;;;;;;;5047265;28;20067;-86
2024/01/13 07:20:25;;;;;;;5.90;2.78;;;;;;;;;;5051703;28;20093;-86
2024/01/13 07:22:50;;;;;;;5.05;3.58;;;;;;;;;;5047864;28;20518;-85
2024/01/13 07:25:16;;;;;;;5.47;4.20;;;;;;;;;;5064741;28;20024;-86
2024/01/13 07:27:41;;;;;;;11.15;3.88;;;;;;;;;;5064487;28;20044;-86
2024/01/13 07:30:07;;;;;;;11.52;5.18;;;;;;;;;;5047792;28;20048;-85
2024/01/13 07:32:32;;;;;;;5.45;2.97;;;;;;;;;;5068107;28;20028;-86
2024/01/13 07:34:58;;;;;;;7.32;3.58;;;;;;;;;;5069671;28;20514;-87
2024/01/13 07:37:23;;;;;;;12.77;4.35;;;;;;;;;;5068992;28;20483;-86
2024/01/13 07:39:49;;;;;;;8.35;3.97;;;;;;;;;;5062716;28;20040;-86
2024/01/13 07:42:15;;;;;;;8.07;3.00;;;;;;;;;;5070511;28;20024;-86
2024/01/13 07:44:44;;;;;;;9.48;4.18;;;;;;;;;;5051621;28;20101;-86
2024/01/13 07:47:09;;;;;;;5.88;3.92;;;;;;;;;;5080978;28;20029;-85
2024/01/13 07:49:35;;;;;;;3.20;2.97;;;;;;;;;;5066090;28;20031;-85
2024/01/13 07:52:00;;;;;;;12.02;4.18;;;;;;;;;;5085522;28;20029;-87
2024/01/13 07:54:26;;;;;;;7.55;4.35;;;;;;;;;;5068378;28;20025;-85
2024/01/13 07:56:52;;;;;;;4.30;3.78;;;;;;;;;;5072118;28;20032;-86
2024/01/13 07:59:18;;;;;;;5.32;3.75;;;;;;;;;;5074252;28;20029;-88
2024/01/13 08:01:44;;;;;;;7.38;3.05;;;;;;;;;;5059810;28;20052;-86
2024/01/13 08:04:09;;;;;;;5.07;3.50;;;;;;;;;;5065523;28;21020;-87
2024/01/13 08:06:35;;;;;;;11.00;4.78;;;;;;;;;;5069114;28;20033;-86
2024/01/13 08:09:03;;;;;;;5.32;3.78;;;;;;;;;;5071619;28;20449;-86
2024/01/13 08:11:28;;;;;;;8.55;3.10;;;;;;;;;;5071427;28;20021;-87
2024/01/13 08:13:54;;;;;;;8.95;3.42;;;;;;;;;;5059288;28;20035;-84
2024/01/13 08:16:19;;;;;;;7.82;3.90;;;;;;;;;;5064405;28;20084;-85
2024/01/13 08:18:45;;;;;;;3.17;2.88;;;;;;;;;;5048978;28;20028;-87
2024/01/13 08:21:10;;;;;;;10.02;4.03;;;;;;;;;;5064205;28;20056;-85
2024/01/13 08:23:35;;;;;;;6.05;2.83;;;;;;;;;;5061674;28;20056;-84
2024/01/13 08:26:02;;;;;;;12.75;3.00;;;;;;;;;;5069476;28;20648;-86
2024/01/13 08:28:28;;;;;;;10.23;4.35;;;;;;;;;;5059485;28;20032;-85
2024/01/13 08:30:53;;;;;;;7.30;4.72;;;;;;;;;;5052032;28;20051;-85
2024/01/13 08:33:19;;;;;;;3.33;2.42;;;;;;;;;;5055672;28;20395;-86
2024/01/13 08:35:44;;;;;;;5.03;3.25;;;;;;;;;;5045718;28;20148;-84
2024/01/13 08:38:11;;;;;;;9.55;3.78;;;;;;;;;;5068663;28;20036;-87
2024/01/13 08:40:36;;;;;;;3.15;2.28;;;;;;;;;;5062246;28;20433;-85
2024/01/13 08:43:03;;;;;;;11.80;5.50;;;;;;;;;;5047288;28;20081;-86
2024/01/13 08:45:33;;;;;;;17.55;3.55;;;;;;;;;;5068260;28;20024;-86
2024/01/13 08:47:59;;;;;;;7.22;2.50;;;;;;;;;;5057468;28;20079;-85
2024/01/13 08:50:25;;;;;;;4.82;3.08;;;;;;;;;;5038593;28;20036;-86
2024/01/13 08:52:54;;;;;;;6.00;3.28;;;;;;;;;;5067211;28;20029;-84
2024/01/13 08:55:23;;;;;;;4.47;1.70;;;;;;;;;;5057962;28;20585;-84
2024/01/13 08:57:49;;;;;;;1.15;1.08;;;;;;;;;;5049318;28;20055;-85
2024/01/13 09:00:14;;;;;;;2.70;1.85;;;;;;;;;;5056559;28;20029;-85
2024/01/13 09:02:42;;;;;;;1.65;1.52;;;;;;;;;;5042619;28;20032;-86
2024/01/13 09:05:08;;;;;;;4.22;2.30;;;;;;;;;;5048668;28;20052;-86
2024/01/13 09:07:34;;;;;;;6.32;2.78;;;;;;;;;;5067637;28;20078;-86
2024/01/13 09:10:00;;;;;;;3.05;1.73;;;;;;;;;;5051115;28;20033;-86
2024/01/13 09:12:25;;;;;;;3.33;2.30;;;;;;;;;;5063101;28;20113;-86
2024/01/13 09:14:51;;;;;;;4.65;3.03;;;;;;;;;;5044864;28;20021;-85
2024/01/13 09:17:16;;;;;;;3.45;2.28;;;;;;;;;;5064071;28;20032;-86
2024/01/13 09:19:42;;;;;;;3.83;2.45;;;;;;;;;;5056700;28;20040;-87
2024/01/13 09:22:07;;;;;;;5.13;2.97;;;;;;;;;;5065119;28;20040;-85
2024/01/13 09:24:32;;;;;;;1.30;1.20;;;;;;;;;;5045159;28;20036;-85
2024/01/13 09:26:58;;;;;;;0.80;0.80;;;;;;;;;;5050427;28;20032;-85
2024/01/13 09:29:23;;;;;;;2.10;1.48;;;;;;;;;;5044383;28;20029;-84
2024/01/13 09:31:49;;;;;;;3.33;2.00;;;;;;;;;;5059857;28;20024;-87
2024/01/13 09:34:15;;;;;;;2.72;1.63;;;;;;;;;;5039443;28;20017;-87
2024/01/13 09:36:42;;;;;;;1.42;1.33;;;;;;;;;;5065278;28;20025;-86
2024/01/13 09:39:14;;;;;;;4.28;2.38;;;;;;;;;;5068866;28;20067;-86
2024/01/13 09:41:45;;;;;;;;;;;;;;;;;;5051225;28;20045;-86
2024/01/13 09:44:25;;;;;;;1.70;1.60;;;;;;;;;;5069497;28;19916;-87
2024/01/13 09:46:52;;;;;;;1.38;1.27;;;;;;;;;;5071983;28;20056;-86
2024/01/13 09:49:19;;;;;;;5.40;1.73;;;;;;;;;;5069534;28;20020;-89
2024/01/13 09:51:45;;;;;;;1.65;1.55;;;;;;;;;;5025085;28;20040;-86
2024/01/13 09:54:24;;;;;;;1.70;1.60;;;;;;;;;;5042287;28;20033;-86
2024/01/13 09:56:50;;;;;;;2.03;1.85;;;;;;;;;;5065423;28;20071;-86
2024/01/13 09:59:16;;;;;;;3.08;2.17;;;;;;;;;;5051565;28;20060;-87
2024/01/13 10:01:42;;;;;;;3.42;2.25;;;;;;;;;;5056933;28;20847;-86
2024/01/13 10:04:08;;;;;;;2.72;1.73;;;;;;;;;;5067057;28;20028;-87
2024/01/13 10:06:35;;;;;;;2.78;2.03;;;;;;;;;;5067265;28;20021;-83
2024/01/13 10:09:02;;;;;;;1.20;1.10;;;;;;;;;;5067718;28;20048;-87
2024/01/13 10:11:30;;;;;;;3.35;2.20;;;;;;;;;;5050084;28;20046;-86
2024/01/13 10:13:59;;;;;;;1.95;1.75;;;;;;;;;;5071180;28;20025;-86
2024/01/13 10:16:30;;;;;;;9.77;5.28;;;;;;;;;;5052583;28;20116;-86
2024/01/13 10:19:05;;;;;;;9.38;4.18;;;;;;;;;;5072645;28;20469;-86
2024/01/13 10:21:32;;;;;;;18.48;5.63;;;;;;;;;;5070181;28;20032;-86
2024/01/13 10:23:59;;;;;;;3.40;3.03;;;;;;;;;;5062737;28;20410;-86
2024/01/13 10:26:25;;;;;;;7.38;3.38;;;;;;;;;;5055717;28;20028;-88
2024/01/13 10:28:51;;;;;;;2.67;2.45;;;;;;;;;;5047321;28;20020;-86
2024/01/13 10:31:18;;;;;;;1.73;1.35;;;;;;;;;;5050321;28;20562;-89
2024/01/13 10:33:50;;;;;;;1.42;1.33;;;;;;;;;;5069130;28;20048;-87
2024/01/13 10:36:16;;;;;;;1.35;1.25;;;;;;;;;;5054936;28;20020;-88
2024/01/13 10:38:43;;;;;;;2.33;1.70;;;;;;;;;;5062167;28;20037;-84
2024/01/13 10:41:09;;;;;;;3.17;2.88;;;;;;;;;;5043492;28;20504;-85
2024/01/13 10:43:38;;;;;;;4.80;2.92;;;;;;;;;;5051393;28;20029;-88
2024/01/13 10:46:12;;;;;;;2.50;2.33;;;;;;;;;;5067077;28;20025;-86
2024/01/13 10:48:46;;;;;;;5.90;3.22;;;;;;;;;;5051257;28;20123;-87
2024/01/13 10:51:29;;;;;;;4.20;1.73;;;;;;;;;;5069237;28;20034;-88
2024/01/13 10:53:58;;;;;;;2.78;2.20;;;;;;;;;;5069758;28;20032;-87
2024/01/13 10:56:26;;;;;;;1.92;1.83;;;;;;;;;;5071446;28;20089;-86
2024/01/13 10:58:52;;;;;;;2.53;2.28;;;;;;;;;;5048021;28;20606;-86
2024/01/13 11:01:17;;;;;;;4.97;2.67;;;;;;;;;;5071336;28;20036;-86
2024/01/13 11:03:44;;;;;;;3.80;1.85;;;;;;;;;;5049859;28;20597;-86
2024/01/13 11:06:09;;;;;;;7.55;2.70;;;;;;;;;;5052775;28;20055;-87
2024/01/13 11:08:35;;;;;;;2.92;2.42;;;;;;;;;;5071816;28;20032;-87
2024/01/13 11:11:02;;;;;;;5.82;3.17;;;;;;;;;;5056937;28;20024;-87
2024/01/13 11:13:32;;;;;;;4.57;2.90;;;;;;;;;;5068347;28;20112;-88
2024/01/13 11:16:08;;;;;;;2.92;1.88;;;;;;;;;;5071646;28;20031;-86
2024/01/13 11:18:38;;;;;;;4.88;2.72;;;;;;;;;;5055063;28;20101;-87
2024/01/13 11:21:08;;;;;;;3.38;2.67;;;;;;;;;;5050746;28;20520;-86
2024/01/13 11:23:44;;;;;;;6.35;3.08;;;;;;;;;;5065101;28;20056;-86
2024/01/13 11:26:10;;;;;;;9.15;4.78;;;;;;;;;;5073910;28;20031;-87
2024/01/13 11:29:13;;;;;;;5.75;3.83;;;;;;;;;;5059762;28;20028;-84
2024/01/13 11:31:40;;;;;;;5.35;3.40;;;;;;;;;;5062491;28;20052;-85
2024/01/13 11:34:10;;;;;;;4.75;2.53;;;;;;;;;;5063411;28;20671;-87
2024/01/13 11:36:39;;;;;;;5.43;3.42;;;;;;;;;;5044467;28;20032;-85
2024/01/13 11:39:06;;;;;;;3.95;2.90;;;;;;;;;;5048814;28;20063;-87
2024/01/13 11:41:39;;;;;;;3.63;2.45;;;;;;;;;;5065315;28;20058;-87
2024/01/13 11:44:08;;;;;;;3.55;2.92;;;;;;;;;;5055456;28;20448;-87
2024/01/13 11:46:39;;;;;;;2.10;1.90;;;;;;;;;;5065853;28;20031;-87
2024/01/13 11:49:05;;;;;;;6.43;3.70;;;;;;;;;;5045815;28;20047;-85
2024/01/13 11:51:59;;;;;;;8.82;2.85;;;;;;;;;;5072808;28;20041;-85
2024/01/13 11:54:25;;;;;;;1.85;1.67;;;;;;;;;;5074110;28;20031;-86
2024/01/13 11:56:52;;;;;;;0.55;0.55;;;;;;;;;;5061493;28;20029;-84
2024/01/13 11:59:18;;;;;;;2.03;1.83;;;;;;;;;;5063753;28;20082;-86
2024/01/13 12:01:45;;;;;;;5.45;3.63;;;;;;;;;;5070045;28;20037;-84
2024/01/13 12:04:10;;;;;;;5.85;4.00;;;;;;;;;;5078139;28;20037;-85
2024/01/13 12:06:36;;;;;;;4.28;2.75;;;;;;;;;;5077501;28;20052;-85
2024/01/13 12:09:01;;;;;;;3.83;2.85;;;;;;;;;;5068361;28;20032;-87
2024/01/13 12:11:27;;;;;;;3.35;1.75;;;;;;;;;;5069162;28;20090;-87
2024/01/13 12:13:52;;;;;;;5.18;3.35;;;;;;;;;;5072891;28;20025;-85
2024/01/13 12:16:18;;;;;;;5.10;3.20;;;;;;;;;;5066229;28;20210;-85
2024/01/13 12:18:47;;;;;;;3.58;3.28;;;;;;;;;;5057968;28;20043;-84
2024/01/13 12:21:14;;;;;;;3.58;2.85;;;;;;;;;;5073848;28;20040;-85
2024/01/13 12:23:42;;;;;;;3.33;1.98;;;;;;;;;;5070820;28;20039;-85
2024/01/13 12:26:08;;;;;;;2.72;2.50;;;;;;;;;;5071390;28;20017;-87
2024/01/13 12:28:34;;;;;;;2.10;1.73;;;;;;;;;;5059950;28;20039;-85
2024/01/13 12:31:03;;;;;;;5.60;3.35;;;;;;;;;;5058989;28;20048;-87
2024/01/13 12:33:28;;;;;;;7.80;4.32;;;;;;;;;;5047490;28;20028;-86
2024/01/13 12:35:58;;;;;;;4.28;2.45;;;;;;;;;;5066043;28;20127;-86
2024/01/13 12:38:26;;;;;;;3.95;2.88;;;;;;;;;;5071643;28;20048;-85
2024/01/13 12:40:52;;;;;;;3.58;2.83;;;;;;;;;;5063861;28;20035;-85
2024/01/13 12:43:18;;;;;;;4.97;3.30;;;;;;;;;;5077996;28;20112;-86
2024/01/13 12:45:44;;;;;;;2.20;2.10;;;;;;;;;;5075012;28;20098;-86
2024/01/13 12:48:09;;;;;;;2.38;1.85;;;;;;;;;;5071619;28;20036;-87
2024/01/13 12:50:35;;;;;;;8.45;3.85;;;;;;;;;;5038369;28;20029;-85
2024/01/13 12:53:00;;;;;;;4.55;2.63;;;;;;;;;;5040920;28;20033;-85
2024/01/13 12:55:25;;;;;;;4.78;2.80;;;;;;;;;;5058296;28;20606;-86
2024/01/13 12:57:51;;;;;;;1.73;1.63;;;;;;;;;;5064931;28;20442;-85
2024/01/13 13:00:18;;;;;;;6.70;3.10;;;;;;;;;;5063079;28;20059;-86
2024/01/13 13:02:44;;;;;;;1.90;1.50;;;;;;;;;;5050273;28;20052;-86
2024/01/13 13:05:10;;;;;;;1.92;1.80;;;;;;;;;;5063900;28;20060;-86
2024/01/13 13:07:35;;;;;;;3.10;2.13;;;;;;;;;;5066317;28;20021;-86
2024/01/13 13:10:01;;;;;;;2.72;2.03;;;;;;;;;;5060978;28;20055;-87
2024/01/13 13:12:27;;;;;;;3.65;2.60;;;;;;;;;;5059692;28;20036;-87
2024/01/13 13:14:52;;;;;;;2.58;2.10;;;;;;;;;;5066296;28;20674;-86
2024/01/13 13:17:18;;;;;;;2.97;2.53;;;;;;;;;;5047598;28;20031;-87
2024/01/13 13:19:43;;;;;;;8.55;3.22;;;;;;;;;;5062215;28;20063;-86
2024/01/13 13:22:09;;;;;;;2.92;2.38;;;;;;;;;;5057163;28;20430;-86
2024/01/13 13:24:34;;;;;;;2.08;1.75;;;;;;;;;;5060486;28;20061;-87
2024/01/13 13:27:00;;;;;;;1.10;1.10;;;;;;;;;;5041643;28;20025;-85
2024/01/13 13:29:25;;;;;;;1.48;1.38;;;;;;;;;;5039321;28;20037;-86
2024/01/13 13:31:51;;;;;;;2.70;2.05;;;;;;;;;;5075468;28;20092;-87
2024/01/13 13:34:16;;;;;;;0.80;0.80;;;;;;;;;;5068670;28;20017;-87
2024/01/13 13:36:42;;;;;;;1.13;1.13;;;;;;;;;;5067367;28;20044;-88
2024/01/13 13:39:07;;;;;;;3.17;1.80;;;;;;;;;;5072864;28;20024;-86
2024/01/13 13:41:32;;;;;;;9.10;3.55;;;;;;;;;;5061848;28;20032;-85
2024/01/13 13:43:58;;;;;;;1.42;1.38;;;;;;;;;;5061988;28;20079;-86
2024/01/13 13:46:23;;;;;;;1.77;1.48;;;;;;;;;;5065175;28;20638;-85
2024/01/13 13:48:49;;;;;;;1.15;1.15;;;;;;;;;;5065894;28;20032;-85
2024/01/13 13:51:14;;;;;;;0.47;0.47;;;;;;;;;;5072591;28;20155;-84
2024/01/13 13:53:39;;;;;;;1.38;1.27;;;;;;;;;;5061055;28;20041;-86
2024/01/13 13:56:05;;;;;;;0.60;0.60;;;;;;;;;;5059237;28;20032;-84
2024/01/13 13:58:31;;;;;;;1.65;1.48;;;;;;;;;;5061407;28;20091;-85
2024/01/13 14:00:57;;;;;;;1.15;1.15;;;;;;;;;;5055359;28;20025;-85
2024/01/13 14:03:22;;;;;;;1.98;1.52;;;;;;;;;;5040973;28;20523;-86
2024/01/13 14:05:47;;;;;;;2.38;1.17;;;;;;;;;;5043643;28;20115;-86
2024/01/13 14:08:13;;;;;;;1.38;1.27;;;;;;;;;;5057085;28;20041;-85
2024/01/13 14:10:38;;;;;;;0.70;0.70;;;;;;;;;;5056021;28;20060;-85
2024/01/13 14:13:04;;;;;;;2.40;2.10;;;;;;;;;;5061639;28;20145;-84
2024/01/13 14:15:30;;;;;;;2.55;1.23;;;;;;;;;;5046689;28;20025;-87
2024/01/13 14:17:58;;;;;;;4.47;2.10;;;;;;;;;;5046503;28;20044;-84
2024/01/13 14:20:24;;;;;;;0.85;0.85;;;;;;;;;;5059030;28;20036;-84
2024/01/13 14:22:50;;;;;;;2.55;1.90;;;;;;;;;;5062333;28;20476;-84
2024/01/13 14:25:18;;;;;;;2.75;2.50;;;;;;;;;;5058245;28;20571;-84
2024/01/13 14:27:43;;;;;;;1.90;1.75;;;;;;;;;;5067102;28;20119;-85
2024/01/13 14:30:09;;;;;;;2.88;2.20;;;;;;;;;;5063248;28;20755;-83
2024/01/13 14:32:34;;;;;;;1.80;1.60;;;;;;;;;;5044801;28;20028;-84
2024/01/13 14:35:00;;;;;;;1.52;1.25;;;;;;;;;;5058084;28;20037;-84